createdAt,value
2018-06-29T00:02:01.272Z,17.60
2018-06-29T00:04:32.487Z,17.60
2018-06-29T00:07:03.545Z,17.60
2018-06-29T00:09:36.104Z,17.60
2018-06-29T00:12:07.518Z,17.60
2018-06-29T00:14:39.625Z,17.60
2018-06-29T00:17:10.687Z,17.60
2018-06-29T00:19:41.695Z,17.50
2018-06-29T00:22:13.003Z,17.50
2018-06-29T00:24:45.164Z,17.40
2018-06-29T00:27:16.428Z,17.40
2018-06-29T00:29:47.826Z,17.30
2018-06-29T00:32:20.118Z,17.20
2018-06-29T00:34:52.027Z,17.10
2018-06-29T00:37:23.155Z,17.10
2018-06-29T00:39:54.376Z,17.10
2018-06-29T00:42:25.516Z,17.10
2018-06-29T00:44:56.881Z,17.00
2018-06-29T00:47:28.598Z,16.90
2018-06-29T00:49:59.766Z,16.90
2018-06-29T00:52:30.840Z,16.80
2018-06-29T00:55:02.043Z,16.70
2018-06-29T00:57:33.147Z,16.60
2018-06-29T01:00:07.716Z,16.70
2018-06-29T01:05:10.003Z,16.60
2018-06-29T01:07:41.344Z,16.60
2018-06-29T01:10:12.431Z,16.60
2018-06-29T01:12:44.238Z,16.60
2018-06-29T01:15:15.478Z,16.50
2018-06-29T01:17:47.304Z,16.40
2018-06-29T01:20:18.341Z,16.30
2018-06-29T01:27:51.353Z,16.10
2018-06-29T01:30:22.374Z,16.10
2018-06-29T01:32:53.480Z,16.00
2018-06-29T01:35:24.714Z,16.00
2018-06-29T01:40:26.239Z,16.00
2018-06-29T01:42:57.542Z,16.00
2018-06-29T01:45:28.807Z,16.00
2018-06-29T01:48:00.086Z,16.00
2018-06-29T01:50:31.204Z,16.00
2018-06-29T01:53:02.537Z,16.00
2018-06-29T01:55:33.950Z,16.10
2018-06-29T01:58:05.327Z,16.10
2018-06-29T02:00:36.379Z,16.20
2018-06-29T02:03:07.732Z,16.30
2018-06-29T02:05:39.473Z,16.20
2018-06-29T02:10:41.081Z,16.10
2018-06-29T02:15:42.546Z,16.00
2018-06-29T02:18:13.852Z,15.90
2018-06-29T02:23:15.515Z,15.70
2018-06-29T02:25:46.716Z,15.60
2018-06-29T02:28:17.627Z,15.50
2018-06-29T02:30:48.940Z,15.40
2018-06-29T02:33:20.084Z,15.30
2018-06-29T02:35:52.409Z,15.20
2018-06-29T02:38:23.349Z,15.10
2018-06-29T02:40:54.761Z,15.20
2018-06-29T02:43:25.836Z,15.20
2018-06-29T02:45:56.720Z,15.20
2018-06-29T02:48:27.643Z,15.20
2018-06-29T02:50:58.724Z,15.20
2018-06-29T02:53:29.731Z,15.10
2018-06-29T02:58:31.308Z,14.90
2018-06-29T03:01:02.396Z,14.90
2018-06-29T03:03:34.208Z,14.90
2018-06-29T03:06:05.916Z,14.80
2018-06-29T03:08:36.901Z,14.70
2018-06-29T03:11:08.340Z,14.70
2018-06-29T03:13:39.647Z,14.70
2018-06-29T03:18:41.101Z,14.80
2018-06-29T03:21:12.838Z,14.80
2018-06-29T03:23:43.983Z,14.80
2018-06-29T03:26:15.191Z,14.80
2018-06-29T03:28:47.029Z,14.70
2018-06-29T03:31:19.097Z,14.70
2018-06-29T03:33:51.228Z,14.70
2018-06-29T03:36:23.186Z,14.60
2018-06-29T03:38:54.348Z,14.50
2018-06-29T03:43:56.255Z,14.50
2018-06-29T03:46:27.331Z,14.60
2018-06-29T03:48:59.104Z,14.60
2018-06-29T03:51:31.004Z,14.60
2018-06-29T03:54:02.206Z,14.60
2018-06-29T03:56:34.638Z,14.60
2018-06-29T04:01:36.246Z,14.20
2018-06-29T04:04:08.522Z,14.20
2018-06-29T04:09:12.896Z,14.30
2018-06-29T04:11:44.547Z,14.30
2018-06-29T04:14:15.877Z,14.30
2018-06-29T04:16:48.150Z,14.40
2018-06-29T04:19:19.325Z,14.40
2018-06-29T04:21:50.348Z,14.50
2018-06-29T04:24:21.899Z,14.60
2018-06-29T04:26:53.268Z,14.70
2018-06-29T04:29:24.769Z,14.70
2018-06-29T04:31:56.338Z,14.70
2018-06-29T04:34:27.878Z,14.80
2018-06-29T04:37:00.358Z,14.80
2018-06-29T04:39:31.738Z,14.80
2018-06-29T04:42:02.923Z,14.80
2018-06-29T04:44:34.074Z,14.80
2018-06-29T04:47:05.328Z,14.90
2018-06-29T04:49:37.528Z,15.00
2018-06-29T04:52:09.306Z,15.10
2018-06-29T04:54:40.505Z,15.20
2018-06-29T04:57:11.731Z,15.30
2018-06-29T04:59:42.926Z,15.30
2018-06-29T05:02:14.143Z,15.40
2018-06-29T05:04:45.348Z,15.50
2018-06-29T05:07:16.517Z,15.50
2018-06-29T05:09:48.245Z,15.70
2018-06-29T05:12:19.682Z,15.80
2018-06-29T05:14:52.029Z,15.90
2018-06-29T05:17:23.437Z,16.00
2018-06-29T05:19:54.667Z,16.00
2018-06-29T05:22:25.776Z,16.20
2018-06-29T05:24:57.151Z,16.40
2018-06-29T05:27:28.239Z,16.60
2018-06-29T05:32:31.243Z,16.80
2018-06-29T05:35:03.323Z,16.90
2018-06-29T05:37:35.502Z,17.10
2018-06-29T05:40:07.706Z,17.20
2018-06-29T05:42:39.114Z,17.30
2018-06-29T05:45:11.395Z,17.40
2018-06-29T05:50:15.642Z,17.50
2018-06-29T05:52:47.396Z,17.70
2018-06-29T05:55:18.757Z,18.00
2018-06-29T05:57:50.593Z,18.10
2018-06-29T06:00:23.508Z,18.30
2018-06-29T06:02:55.295Z,18.40
2018-06-29T06:05:28.516Z,18.70
2018-06-29T06:08:00.041Z,18.80
2018-06-29T06:10:31.808Z,18.70
2018-06-29T06:13:03.263Z,18.90
2018-06-29T06:15:35.809Z,19.10
2018-06-29T06:18:07.178Z,19.30
2018-06-29T06:20:38.802Z,19.60
2018-06-29T06:23:21.266Z,19.80
2018-06-29T06:25:53.456Z,19.90
2018-06-29T06:28:25.281Z,20.20
2018-06-29T06:30:57.680Z,20.40
2018-06-29T06:33:29.736Z,20.80
2018-06-29T06:36:02.210Z,21.30
2018-06-29T06:38:34.880Z,21.80
2018-06-29T06:41:06.952Z,22.60
2018-06-29T06:43:38.470Z,23.10
2018-06-29T06:46:11.648Z,23.30
2018-06-29T06:48:43.243Z,23.80
2018-06-29T06:51:15.146Z,24.30
2018-06-29T06:53:47.676Z,24.70
2018-06-29T06:56:21.818Z,25.10
2018-06-29T06:58:54.771Z,25.10
2018-06-29T07:01:28.160Z,25.30
2018-06-29T07:04:01.238Z,25.40
2018-06-29T07:06:33.390Z,25.20
2018-06-29T07:11:37.302Z,25.70
2018-06-29T07:14:11.077Z,25.90
2018-06-29T07:16:43.731Z,26.10
2018-06-29T07:19:15.759Z,26.50
2018-06-29T07:21:47.168Z,26.70
2018-06-29T07:24:19.440Z,27.00
2018-06-29T07:26:50.834Z,27.00
2018-06-29T07:29:22.545Z,27.10
2018-06-29T07:31:54.130Z,27.00
2018-06-29T07:34:25.410Z,27.10
2018-06-29T07:36:56.839Z,27.30
2018-06-29T07:39:28.738Z,27.70
2018-06-29T07:42:00.895Z,27.90
2018-06-29T07:44:32.342Z,27.80
2018-06-29T07:47:04.170Z,27.80
2018-06-29T07:49:35.902Z,27.90
2018-06-29T07:52:07.324Z,28.20
2018-06-29T07:54:38.855Z,28.30
2018-06-29T07:57:10.298Z,28.30
2018-06-29T07:59:42.938Z,27.80
2018-06-29T08:02:14.838Z,28.20
2018-06-29T08:04:46.208Z,28.00
2018-06-29T08:07:18.324Z,28.10
2018-06-29T08:09:49.884Z,28.20
2018-06-29T08:12:21.525Z,28.40
2018-06-29T08:14:52.778Z,28.70
2018-06-29T08:17:24.051Z,29.20
2018-06-29T08:19:55.615Z,29.40
2018-06-29T08:22:27.613Z,29.30
2018-06-29T08:27:41.483Z,29.90
2018-06-29T08:30:15.665Z,29.90
2018-06-29T08:32:47.194Z,30.10
2018-06-29T08:35:18.523Z,29.80
2018-06-29T08:37:51.536Z,29.60
2018-06-29T08:40:22.677Z,29.60
2018-06-29T08:42:54.029Z,29.70
2018-06-29T08:45:25.707Z,30.00
2018-06-29T08:47:57.234Z,30.30
2018-06-29T08:50:29.096Z,30.10
2018-06-29T08:53:02.998Z,30.40
2018-06-29T08:55:35.127Z,30.70
2018-06-29T08:58:06.991Z,30.80
2018-06-29T09:00:38.637Z,31.10
2018-06-29T09:03:10.269Z,31.10
2018-06-29T09:05:41.347Z,31.00
2018-06-29T09:08:15.048Z,31.40
2018-06-29T09:10:47.627Z,31.70
2018-06-29T09:13:20.140Z,31.80
2018-06-29T09:15:52.616Z,32.00
2018-06-29T09:18:25.730Z,31.60
2018-06-29T09:20:58.256Z,31.40
2018-06-29T09:23:32.942Z,30.30
2018-06-29T09:28:35.944Z,30.80
2018-06-29T09:31:08.895Z,30.90
2018-06-29T09:33:45.945Z,31.40
2018-06-29T09:36:18.768Z,31.90
2018-06-29T09:41:21.855Z,31.00
2018-06-29T09:43:54.434Z,31.70
2018-06-29T09:46:27.217Z,31.90
2018-06-29T09:48:59.244Z,32.20
2018-06-29T09:51:31.059Z,32.70
2018-06-29T09:54:03.393Z,32.90
2018-06-29T09:56:34.646Z,33.30
2018-06-29T09:59:06.644Z,33.10
2018-06-29T10:01:38.160Z,32.30
2018-06-29T10:04:09.346Z,31.40
2018-06-29T10:06:41.924Z,31.40
2018-06-29T10:09:13.303Z,30.50
2018-06-29T10:11:45.984Z,30.10
2018-06-29T10:14:17.449Z,30.80
2018-06-29T10:16:48.541Z,31.60
2018-06-29T10:19:19.771Z,32.30
2018-06-29T10:21:52.141Z,32.40
2018-06-29T10:24:24.571Z,31.90
2018-06-29T10:26:56.959Z,31.80
2018-06-29T10:29:28.375Z,32.20
2018-06-29T10:32:01.056Z,32.50
2018-06-29T10:34:32.558Z,32.70
2018-06-29T10:37:05.618Z,32.70
2018-06-29T10:39:36.933Z,32.90
2018-06-29T10:42:08.495Z,32.50
2018-06-29T10:44:41.406Z,33.20
2018-06-29T10:47:14.342Z,33.50
2018-06-29T10:49:47.258Z,33.50
2018-06-29T10:52:19.163Z,33.60
2018-06-29T10:54:51.207Z,33.90
2018-06-29T10:57:22.827Z,33.80
2018-06-29T10:59:55.037Z,34.10
2018-06-29T11:02:26.319Z,33.80
2018-06-29T11:04:57.792Z,33.60
2018-06-29T11:07:29.012Z,32.70
2018-06-29T11:10:01.882Z,32.10
2018-06-29T11:12:33.297Z,32.10
2018-06-29T11:15:04.461Z,33.00
2018-06-29T11:17:36.743Z,33.60
2018-06-29T11:20:08.305Z,33.40
2018-06-29T11:22:39.528Z,34.30
2018-06-29T11:25:11.038Z,34.60
2018-06-29T11:27:42.695Z,34.10
2018-06-29T11:30:14.298Z,32.60
2018-06-29T11:32:46.258Z,32.20
2018-06-29T11:35:18.285Z,31.70
2018-06-29T11:37:49.543Z,31.90
2018-06-29T11:40:20.760Z,32.30
2018-06-29T11:42:51.676Z,32.60
2018-06-29T11:45:23.315Z,33.10
2018-06-29T11:47:54.874Z,33.80
2018-06-29T11:50:28.943Z,34.00
2018-06-29T11:53:01.277Z,34.60
2018-06-29T11:55:33.089Z,34.60
2018-06-29T11:58:08.337Z,34.90
2018-06-29T12:00:39.775Z,35.00
2018-06-29T12:03:15.139Z,35.00
2018-06-29T12:05:50.792Z,35.00
2018-06-29T12:08:24.464Z,34.80
2018-06-29T12:10:57.514Z,34.90
2018-06-29T12:13:28.814Z,34.60
2018-06-29T12:16:00.786Z,34.50
2018-06-29T12:18:32.436Z,34.90
2018-06-29T12:21:04.450Z,34.70
2018-06-29T12:23:36.274Z,35.20
2018-06-29T12:26:08.805Z,35.10
2018-06-29T12:28:40.411Z,34.90
2018-06-29T12:31:11.996Z,35.00
2018-06-29T12:33:43.296Z,34.90
2018-06-29T12:36:16.010Z,35.40
2018-06-29T12:38:47.873Z,34.90
2018-06-29T12:41:19.779Z,34.50
2018-06-29T12:43:51.636Z,34.00
2018-06-29T12:46:24.163Z,34.30
2018-06-29T12:48:55.797Z,34.40
2018-06-29T12:51:27.801Z,34.60
2018-06-29T12:54:01.484Z,34.50
2018-06-29T12:56:32.853Z,34.20
2018-06-29T13:06:37.666Z,32.00
2018-06-29T13:09:11.702Z,32.10
2018-06-29T13:11:43.520Z,32.60
2018-06-29T13:14:14.998Z,33.40
2018-06-29T13:16:46.216Z,34.00
2018-06-29T13:19:18.698Z,34.10
2018-06-29T13:21:51.123Z,33.80
2018-06-29T13:24:23.953Z,32.70
2018-06-29T13:26:55.263Z,32.20
2018-06-29T13:29:27.684Z,31.50
2018-06-29T13:31:59.582Z,31.20
2018-06-29T13:34:31.400Z,31.00
2018-06-29T13:37:04.125Z,31.00
2018-06-29T13:39:36.646Z,30.90
2018-06-29T13:42:08.841Z,30.90
2018-06-29T13:44:40.615Z,30.90
2018-06-29T13:47:13.050Z,30.90
2018-06-29T13:49:45.099Z,30.90
2018-06-29T13:52:17.967Z,31.30
2018-06-29T13:54:50.617Z,32.00
2018-06-29T13:57:22.883Z,32.80
2018-06-29T13:59:54.391Z,33.10
2018-06-29T14:02:25.691Z,33.40
2018-06-29T14:04:57.380Z,33.80
2018-06-29T14:07:29.278Z,34.10
2018-06-29T14:10:01.059Z,34.10
2018-06-29T14:12:33.164Z,33.80
2018-06-29T14:15:05.676Z,33.30
2018-06-29T14:17:37.673Z,32.70
2018-06-29T14:20:09.364Z,32.20
2018-06-29T14:22:40.727Z,31.80
2018-06-29T14:25:13.290Z,31.40
2018-06-29T14:27:45.378Z,31.20
2018-06-29T14:30:17.014Z,31.20
2018-06-29T14:32:49.506Z,31.30
2018-06-29T14:35:21.074Z,31.60
2018-06-29T14:37:52.453Z,31.60
2018-06-29T14:40:23.825Z,31.80
2018-06-29T14:42:55.689Z,32.10
2018-06-29T14:45:27.725Z,32.30
2018-06-29T14:47:59.974Z,32.50
2018-06-29T14:50:31.170Z,32.60
2018-06-29T14:55:33.435Z,32.70
2018-06-29T14:58:06.382Z,32.80
2018-06-29T15:00:38.753Z,32.60
2018-06-29T15:03:10.561Z,32.60
2018-06-29T15:05:41.717Z,32.50
2018-06-29T15:08:13.304Z,32.60
2018-06-29T15:10:44.697Z,32.60
2018-06-29T15:13:16.203Z,32.40
2018-06-29T15:15:48.659Z,32.50
2018-06-29T15:18:20.728Z,32.50
2018-06-29T15:20:52.055Z,32.50
2018-06-29T15:23:23.732Z,32.40
2018-06-29T15:25:55.850Z,32.30
2018-06-29T15:28:27.461Z,32.30
2018-06-29T15:31:00.028Z,32.20
2018-06-29T15:33:32.330Z,32.30
2018-06-29T15:36:03.575Z,32.30
2018-06-29T15:38:36.708Z,32.00
2018-06-29T15:41:08.066Z,31.80
2018-06-29T15:43:39.649Z,31.60
2018-06-29T15:46:11.025Z,31.50
2018-06-29T15:48:43.034Z,31.70
2018-06-29T15:51:15.428Z,31.90
2018-06-29T15:53:47.665Z,32.00
2018-06-29T15:56:20.129Z,32.10
2018-06-29T15:58:52.318Z,32.10
2018-06-29T16:01:23.616Z,32.10
2018-06-29T16:03:56.756Z,31.60
2018-06-29T16:06:29.354Z,31.50
2018-06-29T16:09:01.540Z,31.30
2018-06-29T16:11:34.238Z,31.40
2018-06-29T16:14:05.615Z,31.40
2018-06-29T16:16:37.298Z,31.30
2018-06-29T16:21:39.147Z,30.90
2018-06-29T16:24:10.268Z,30.90
2018-06-29T16:26:41.901Z,30.80
2018-06-29T16:29:12.999Z,30.60
2018-06-29T16:31:45.178Z,30.60
2018-06-29T16:34:16.675Z,30.40
2018-06-29T16:36:48.134Z,30.40
2018-06-29T16:39:19.895Z,30.30
2018-06-29T16:41:51.520Z,30.20
2018-06-29T16:44:23.098Z,30.20
2018-06-29T16:46:55.395Z,30.30
2018-06-29T16:49:27.801Z,30.20
2018-06-29T16:52:00.251Z,30.30
2018-06-29T16:54:33.400Z,30.30
2018-06-29T16:57:06.010Z,30.30
2018-06-29T16:59:37.680Z,30.20
2018-06-29T17:02:10.223Z,30.20
2018-06-29T17:04:42.214Z,30.10
2018-06-29T17:07:13.541Z,30.20
2018-06-29T17:12:18.010Z,30.10
2018-06-29T17:14:51.144Z,30.10
2018-06-29T17:17:23.148Z,30.00
2018-06-29T17:19:55.349Z,30.00
2018-06-29T17:22:27.533Z,29.90
2018-06-29T17:25:00.222Z,29.80
2018-06-29T17:27:31.527Z,29.80
2018-06-29T17:30:03.967Z,29.60
2018-06-29T17:32:37.579Z,29.60
2018-06-29T17:35:09.305Z,29.60
2018-06-29T17:37:42.365Z,29.60
2018-06-29T17:40:13.791Z,29.50
2018-06-29T17:42:48.801Z,29.40
2018-06-29T17:45:21.042Z,29.20
2018-06-29T17:47:52.417Z,29.10
2018-06-29T17:50:23.707Z,29.00
2018-06-29T17:52:55.449Z,28.90
2018-06-29T17:55:27.604Z,28.80
2018-06-29T17:58:01.055Z,28.80
2018-06-29T18:00:32.846Z,28.70
2018-06-29T18:03:05.921Z,28.60
2018-06-29T18:05:37.892Z,28.60
2018-06-29T18:08:09.370Z,28.50
2018-06-29T18:10:42.759Z,28.50
2018-06-29T18:13:16.873Z,28.40
2018-06-29T18:15:50.289Z,28.20
2018-06-29T18:18:21.629Z,28.20
2018-06-29T18:20:53.190Z,28.00
2018-06-29T18:23:26.959Z,27.80
2018-06-29T18:26:04.476Z,27.60
2018-06-29T18:28:36.489Z,27.20
2018-06-29T18:31:07.808Z,27.00
2018-06-29T18:33:38.843Z,26.80
2018-06-29T18:36:11.152Z,26.60
2018-06-29T18:38:46.387Z,26.40
2018-06-29T18:41:19.962Z,26.30
2018-06-29T18:43:53.580Z,26.10
2018-06-29T18:46:25.867Z,26.20
2018-06-29T18:48:56.865Z,26.20
2018-06-29T18:51:28.430Z,26.20
2018-06-29T18:54:00.165Z,26.10
2018-06-29T18:59:06.215Z,26.00
2018-06-29T19:01:38.707Z,26.00
2018-06-29T19:04:10.619Z,25.70
2018-06-29T19:06:42.798Z,25.60
2018-06-29T19:09:20.207Z,25.50
2018-06-29T19:11:53.349Z,25.30
2018-06-29T19:14:25.795Z,25.20
2018-06-29T19:16:58.787Z,25.10
2018-06-29T19:19:32.801Z,24.90
2018-06-29T19:22:06.030Z,24.80
2018-06-29T19:24:39.074Z,24.80
2018-06-29T19:32:20.620Z,24.50
2018-06-29T19:37:34.223Z,24.30
2018-06-29T19:40:08.917Z,24.30
2018-06-29T19:42:42.858Z,24.30
2018-06-29T19:45:17.584Z,24.20
2018-06-29T19:47:50.605Z,24.10
2018-06-29T19:50:25.330Z,23.90
2018-06-29T19:52:59.569Z,23.80
2018-06-29T19:55:32.979Z,23.70
2018-06-29T19:58:07.407Z,23.60
2018-06-29T20:00:40.026Z,23.60
2018-06-29T20:03:13.515Z,23.50
2018-06-29T20:08:19.464Z,23.30
2018-06-29T20:13:25.901Z,23.10
2018-06-29T20:16:00.566Z,23.00
2018-06-29T20:18:35.253Z,22.90
2018-06-29T20:21:09.136Z,22.90
2018-06-29T20:23:42.504Z,22.90
2018-06-29T20:26:16.031Z,22.90
2018-06-29T20:28:50.054Z,22.80
2018-06-29T20:31:24.489Z,22.90
2018-06-29T20:33:58.209Z,22.80
2018-06-29T20:36:31.638Z,22.80
2018-06-29T20:39:08.427Z,22.70
2018-06-29T20:41:45.135Z,22.70
2018-06-29T20:44:18.258Z,22.60
2018-06-29T20:46:52.282Z,22.70
2018-06-29T20:49:26.193Z,22.70
2018-06-29T20:51:59.597Z,22.70
2018-06-29T20:54:33.673Z,22.60
2018-06-29T20:57:06.715Z,22.50
2018-06-29T20:59:40.825Z,22.50
2018-06-29T21:02:16.161Z,22.40
2018-06-29T21:04:49.842Z,22.30
2018-06-29T21:07:23.932Z,22.30
2018-06-29T21:09:56.391Z,22.20
2018-06-29T21:12:28.904Z,22.10
2018-06-29T21:15:01.113Z,22.10
2018-06-29T21:17:33.731Z,22.10
2018-06-29T21:20:08.005Z,22.20
2018-06-29T21:22:40.307Z,22.40
2018-06-29T21:25:13.555Z,22.40
2018-06-29T21:27:45.910Z,22.50
2018-06-29T21:30:17.712Z,21.80
2018-06-29T21:32:49.698Z,21.20
2018-06-29T21:35:21.452Z,21.00
2018-06-29T21:37:53.866Z,20.80
2018-06-29T21:40:25.821Z,20.80
2018-06-29T21:42:57.470Z,20.90
2018-06-29T21:45:30.071Z,21.00
2018-06-29T21:48:01.928Z,21.10
2018-06-29T21:50:33.702Z,21.20
2018-06-29T21:53:04.978Z,21.20
2018-06-29T21:55:36.156Z,21.30
2018-06-29T21:58:07.592Z,21.40
2018-06-29T22:00:42.654Z,21.30
2018-06-29T22:03:15.641Z,21.10
2018-06-29T22:05:47.512Z,21.00
2018-06-29T22:08:18.869Z,20.80
2018-06-29T22:10:51.147Z,20.80
2018-06-29T22:13:23.662Z,20.70
2018-06-29T22:15:54.649Z,20.70
2018-06-29T22:18:26.019Z,20.70
2018-06-29T22:20:57.212Z,20.60
2018-06-29T22:23:28.631Z,20.50
2018-06-29T22:26:00.248Z,20.50
2018-06-29T22:28:32.259Z,20.60
2018-06-29T22:31:03.654Z,20.50
2018-06-29T22:33:35.927Z,20.50
2018-06-29T22:36:07.231Z,20.50
2018-06-29T22:38:38.642Z,20.40
2018-06-29T22:41:09.915Z,20.40
2018-06-29T22:43:41.168Z,20.30
2018-06-29T22:46:13.141Z,20.20
2018-06-29T22:48:44.478Z,19.80
2018-06-29T22:51:15.682Z,19.60
2018-06-29T22:53:46.889Z,19.50
2018-06-29T22:56:18.112Z,19.50
2018-06-29T22:58:49.256Z,19.50
2018-06-29T23:01:25.466Z,19.50
2018-06-29T23:03:57.217Z,19.50
2018-06-29T23:06:29.535Z,19.60
2018-06-29T23:09:02.317Z,19.50
2018-06-29T23:11:33.567Z,19.50
2018-06-29T23:14:04.608Z,19.50
2018-06-29T23:16:36.100Z,19.50
2018-06-29T23:19:08.163Z,19.60
2018-06-29T23:21:39.638Z,19.50
2018-06-29T23:24:10.758Z,19.50
2018-06-29T23:26:43.039Z,19.50
2018-06-29T23:29:14.183Z,19.50
2018-06-29T23:31:45.161Z,19.60
2018-06-29T23:34:16.485Z,19.60
2018-06-29T23:36:47.864Z,19.60
2018-06-29T23:39:18.923Z,19.60
2018-06-29T23:41:50.747Z,19.40
2018-06-29T23:44:21.956Z,19.30
2018-06-29T23:46:53.590Z,19.20
2018-06-29T23:49:24.779Z,18.90
2018-06-29T23:51:55.723Z,18.70
2018-06-29T23:54:26.738Z,18.30
2018-06-29T23:56:57.694Z,18.20
2018-06-29T23:59:28.718Z,18.30
